Terminal Aerodrome Forecast
Issued by NWS Wakefield, VA

Home | Current Version | Previous Version | Text Only | Print | Product List | Glossary On
Versions: 1 2 3 4 5 6 7 8 9 10 11 12 13 14
000
FTUS41 KAKQ 181142
TAFSBY
TAF
KSBY 181142Z 1812/1912 00000KT P6SM SCT250
     FM181500 20007KT P6SM BKN200
     FM181700 20012G20KT P6SM BKN200
     FM182300 20018G27KT P6SM OVC200 WS020/21045KT
     FM190900 21021G30KT P6SM -RA OVC040=

USA.gov is the U.S. government's official web portal to all federal, state and local government web resources and services.